• Join FlightAware (Why Join?)
  • Login
  • US Flag 
01:09PM EDT


 

Airport Tracker/Info


-or-


 

Live Flight TrackerFlight Track Log ✈ EJA922 ✈ 28-Oct-2013 ✈ KMDW - KPBI

Flight Track Log - Related Links

Times and Time Zones

All times are in EDT time to prevent confusion due to time zone crossing. See the EJA922 flight status page for this flight to view local times or setup timezone preferences in your user account.

Time Position Orientation Groundspeed Altitude Reporting Facility
EDT Latitude Longitude Course Direction KTS MPH feet Rate Location/Type
09:44AM 41.7833 -87.8167 154° Southeast 225 259 3,000  Level Chicago TRACON
09:45AM 41.7489 -87.8536 219° Southwest 219 252 3,400 1,140 Climbing Chicago Center
09:46AM 41.6842 -87.8519 179° South 244 281 5,000 1,500 Climbing Chicago Center
09:47AM 41.6158 -87.8189 160° South 252 290 6,500 1,200 Climbing Chicago Center
09:48AM 41.5381 -87.7822 161° South 274 315 7,600 1,980 Climbing Chicago Center
09:49AM 41.4586 -87.7433 160° South 295 339 10,700 2,400 Climbing Chicago Center
09:50AM 40.5256 -86.9807 154° Southeast  Level Estimated
09:50AM 41.3606 -87.7244 172° South 351 404 12,600  Level Chicago Center
09:51AM 41.2336 -87.7267 181° South 374 430 15,800 2,760 Climbing Chicago Center
09:52AM 41.1242 -87.7139 175° South 392 451 18,400 2,340 Climbing Chicago Center
09:53AM 41.0133 -87.7014 175° South 397 457 20,700 2,220 Climbing Chicago Center
09:54AM 40.8994 -87.6822 173° South 410 472 23,000 2,040 Climbing Chicago Center
09:55AM 40.7831 -87.6439 166° South 427 491 25,000 2,160 Climbing Chicago Center
09:56AM 40.6642 -87.6058 166° South 436 502 27,500 2,280 Climbing Chicago Center
09:58AM 40.5186 -87.5606 167° South 446 513 29,800 2,220 Climbing Chicago Center
09:59AM 40.3928 -87.5233 167° South 458 527 32,100 1,980 Climbing Chicago Center
10:00AM 40.2697 -87.4847 167° South 457 526 34,000 1,380 Climbing Chicago Center
10:01AM 40.1331 -87.4411 166° South 476 548 35,000 540 Climbing Chicago Center
10:01AM 40.0483 -87.4178 168° South 489 563 35,000 540 Level Indianapolis Center
10:02AM 39.8883 -87.3358 159° South 517 595 36,000 480 Climbing Indianapolis Center
10:03AM 39.7603 -87.2475 152° Southeast 525 604 36,000  Level Indianapolis Center
10:04AM 39.6308 -87.1600 152° Southeast 528 608 36,000  Level Indianapolis Center
10:06AM 39.5006 -87.0731 153° Southeast 531 611 36,000 960 Level Indianapolis Center
10:07AM 39.3464 -86.9708 153° Southeast 527 606 38,000 1,740 Climbing Indianapolis Center
10:08AM 39.2231 -86.8894 153° Southeast 512 589 39,700 960 Climbing Indianapolis Center
10:09AM 39.0919 -86.8114 155° Southeast 507 583 40,000 120 Climbing Indianapolis Center
10:10AM 38.9603 -86.7517 161° South 501 577 40,000  Level Indianapolis Center
10:11AM 38.8286 -86.6906 160° South 499 574 40,000  Level Indianapolis Center
10:12AM 38.6978 -86.6289 160° South 495 570 40,000 480 Level Indianapolis Center
10:13AM 38.5675 -86.5700 161° South 492 566 41,000 480 Climbing Indianapolis Center
10:14AM 38.4356 -86.5081 160° South 496 571 41,000  Level Indianapolis Center
10:15AM 38.3039 -86.4492 161° South 496 571 41,000  Level Indianapolis Center
10:16AM 38.1469 -86.3767 160° South 495 570 41,000  Level Indianapolis Center
10:17AM 38.0158 -86.3161 160° South 496 571 41,000  Level Indianapolis Center
10:18AM 37.8853 -86.2567 160° South 495 570 41,000  Level Indianapolis Center
10:19AM 37.7556 -86.1975 160° South 489 563 41,000  Level Indianapolis Center
10:20AM 37.6231 -86.1389 161° South 498 573 41,000  Level Indianapolis Center
10:21AM 37.4858 -86.0786 161° South 496 571 41,000  Level Indianapolis Center
10:22AM 37.3539 -86.0189 160° South 497 572 41,000  Level Indianapolis Center
10:23AM 37.2217 -85.9594 160° South 498 573 41,000  Level Indianapolis Center
10:24AM 37.0897 -85.9008 160° South 496 571 41,000  Level Indianapolis Center
10:25AM 36.9564 -85.8425 161° South 501 577 41,000  Level Indianapolis Center
10:26AM 36.8008 -85.7733 160° South 502 578 41,000  Level Indianapolis Center
10:27AM 36.6850 -85.7225 161° South 497 572 41,000  Level Indianapolis Center
10:28AM 36.5267 -85.6528 161° South 501 577 41,000  Level Indianapolis Center
10:29AM 36.3942 -85.5947 161° South 505 581 41,000  Level Indianapolis Center
10:30AM 36.2619 -85.5378 161° South 504 580 41,000  Level Indianapolis Center
10:31AM 36.1297 -85.4806 161° South 505 581 41,000  Level Indianapolis Center
10:32AM 35.9983 -85.4272 162° South 503 579 41,000  Level Atlanta Center
10:33AM 35.8614 -85.3686 161° South 503 579 41,000  Level Atlanta Center
10:34AM 35.7306 -85.3128 161° South 503 579 41,000  Level Atlanta Center
10:35AM 35.5956 -85.2544 161° South 503 579 41,000  Level Atlanta Center
10:36AM 35.4625 -85.1964 160° South 503 579 41,000  Level Atlanta Center
10:37AM 35.3275 -85.1411 162° South 503 579 41,000  Level Atlanta Center
10:38AM 35.1944 -85.0833 160° South 503 579 41,000  Level Atlanta Center
10:39AM 35.0592 -85.0283 162° South 503 579 41,000  Level Atlanta Center
10:40AM 34.9261 -84.9711 161° South 503 579 41,000  Level Atlanta Center
10:41AM 34.7889 -84.9139 161° South 508 585 41,000  Level Atlanta Center
10:42AM 34.6556 -84.8594 161° South 508 585 41,000  Level Atlanta Center
10:43AM 34.5392 -84.8053 159° South 499 574 41,000  Level Atlanta Center
10:44AM 34.4058 -84.7514 162° South 512 589 41,000  Level Atlanta Center
10:45AM 34.2683 -84.6947 161° South 512 589 41,000  Level Atlanta Center
10:46AM 34.1164 -84.6361 162° South 512 589 41,000  Level Atlanta Center
10:47AM 33.9789 -84.5825 162° South 522 601 41,000  Level Atlanta Center
10:48AM 33.8475 -84.5267 161° South 516 594 41,000  Level Atlanta Center
10:49AM 33.7081 -84.4708 162° South 516 594 41,000  Level Atlanta Center
10:50AM 33.5850 -84.4203 161° South 516 594 41,000  Level Atlanta Center
10:51AM 33.4472 -84.3625 161° South 522 601 41,000  Level Atlanta Center
10:52AM 33.3139 -84.3047 160° South 517 595 41,000  Level Atlanta Center
10:53AM 33.1742 -84.2472 161° South 524 603 41,000  Level Atlanta Center
10:54AM 33.0239 -84.1875 162° South 519 597 41,000  Level Atlanta Center
10:55AM 32.8883 -84.1303 160° South 519 597 41,000  Level Atlanta Center
10:56AM 32.7506 -84.0708 160° South 519 597 41,000  Level Atlanta Center
10:57AM 32.6128 -84.0142 161° South 519 597 41,000  Level Atlanta Center
10:58AM 32.4750 -83.9600 162° South 519 597 41,000  Level Atlanta Center
10:59AM 32.3539 -83.9111 161° South 519 597 41,000  Level Atlanta Center
11:01AM 32.1381 -83.8200 160° South 540 621 41,000  Level Jacksonville Center
11:02AM 32.0028 -83.7647 161° South 535 616 41,000  Level Jacksonville Center
11:03AM 31.8550 -83.7047 161° South 522 601 41,000 -60 Level Jacksonville Center
11:04AM 31.7175 -83.6497 161° South 521 600 40,900  Descending Jacksonville Center
11:05AM 31.5778 -83.5950 162° South 521 600 41,000  Climbing Jacksonville Center
11:06AM 31.4444 -83.5428 162° South 522 601 41,000  Level Jacksonville Center
11:07AM 31.3111 -83.4908 162° South 517 595 41,000  Level Jacksonville Center
11:08AM 31.1778 -83.4267 158° South 517 595 41,000  Level Jacksonville Center
11:09AM 31.0467 -83.3631 157° South 512 589 41,000  Level Jacksonville Center
11:10AM 30.9194 -83.3042 158° South 512 589 41,000  Level Jacksonville Center
11:11AM 30.7900 -83.2383 156° South 506 582 41,000 -60 Level Jacksonville Center
11:12AM 30.6608 -83.1775 158° South 506 582 40,900 -60 Descending Jacksonville Center
11:13AM 30.5272 -83.1119 157° South 506 582 40,900  Level Jacksonville Center
11:14AM 30.3958 -83.0514 158° South 512 589 40,900  Level Jacksonville Center
11:15AM 30.2622 -82.9889 158° South 512 589 41,000  Climbing Jacksonville Center
11:16AM 30.1308 -82.9261 158° South 512 589 40,900 -60 Descending Jacksonville Center
11:17AM 29.9950 -82.8661 159° South 512 589 40,900  Level Jacksonville Center
11:18AM 29.8614 -82.8064 159° South 518 596 40,900  Level Jacksonville Center
11:19AM 29.7300 -82.7442 158° South 518 596 40,900  Level Jacksonville Center
11:20AM 29.6003 -82.6825 158° South 513 590 40,900  Level Jacksonville Center
11:21AM 29.4939 -82.6300 157° South 513 590 41,000  Climbing Jacksonville Center
11:22AM 29.3494 -82.5639 158° South 513 590 40,900  Descending Jacksonville Center
11:23AM 29.2178 -82.5022 158° South 513 590 41,000  Climbing Jacksonville Center
11:24AM 29.0842 -82.4458 160° South 513 590 41,000 -60 Level Jacksonville Center
11:25AM 28.9506 -82.4253 172° South 503 579 40,900 -60 Descending Jacksonville Center
11:26AM 28.8169 -82.4067 173° South 489 563 40,900 -60 Level Jacksonville Center
11:27AM 28.6811 -82.3908 174° South 484 557 40,800 -720 Descending Jacksonville Center
11:28AM 28.5453 -82.3750 174° South 484 557 39,500 -1,260 Descending Jacksonville Center
11:30AM 28.2211 -82.3344 174° South 531 611 37,000 -1,320 Descending Miami Center
11:31AM 28.0800 -82.3156 173° South 526 605 35,400 -1,020 Descending Miami Center
11:32AM 27.9478 -82.2811 167° South 516 594 35,000 -1,200 Descending Miami Center
11:33AM 27.8058 -82.2322 163° South 509 586 33,000 -1,920 Descending Miami Center
11:34AM 27.6636 -82.1808 162° South 519 597 31,200 -1,680 Descending Miami Center
11:35AM 27.5175 -82.1297 163° South 549 632 29,700 -1,200 Descending Miami Center
11:36AM 27.3692 -82.0783 163° South 549 632 28,800 -1,200 Descending Miami Center
11:37AM 27.2411 -82.0353 163° South 549 632 27,400 -2,100 Descending Miami Center
11:38AM 27.0967 -81.9892 164° South 543 625 24,700 -1,800 Descending Miami Center
11:39AM 26.9711 -81.9394 161° South 511 588 23,800 -1,320 Descending Miami Center
11:40AM 26.8594 -81.8553 146° Southeast 481 554 22,100 -1,800 Descending Miami Center
11:41AM 26.7544 -81.7511 138° Southeast 488 562 20,200 -1,560 Descending Miami Center
11:42AM 26.7092 -81.6025 109° East 481 554 19,000 -600 Descending Miami Center
11:43AM 26.7372 -81.4433 79° East 440 506 19,000 -600 Level Miami Center
11:44AM 26.7642 -81.3142 77° East 452 520 17,800 -1,980 Descending Miami Center
11:45AM 26.7978 -81.1736 75° East 462 532 15,100 -2,400 Descending Miami Center
11:46AM 26.8222 -81.0489 78° East 427 491 13,000 -1,920 Descending Miami Center
11:47AM 26.8317 -80.9375 85° East 383 441 11,300 -1,500 Descending Miami Center
11:48AM 26.8283 -80.8256 92° East 331 381 10,000 -660 Descending Miami Center
11:49AM 26.7975 -80.7383 112° Southeast 300 345 10,000 -180 Level Miami Center
11:50AM 26.7619 -80.6536 115° Southeast 301 346 9,700 -900 Descending Miami Center
11:51AM 26.7347 -80.5758 111° Southeast 296 341 8,300 -1,560 Descending Miami Center
11:52AM 26.6994 -80.4842 113° Southeast 296 341 6,600 -1,500 Descending Miami Center
11:53AM 26.6950 -80.4167 94° East 262 302 5,400 -1,260 Descending Miami Center
11:54AM 26.6906 -80.3397 94° East 227 261 4,100 -1,200 Descending Miami Center
11:55AM 26.6878 -80.2817 93° East 215 247 3,100 -1,020 Descending Miami Center
11:57AM 26.6432 -80.1146 50° Northeast  Level FlightAware Approximate
12:04PM 26.6667 -80.0833 50° Northeast  Level FlightAware Approximate
12:05PM 26.6832 -80.0956 50° Northeast  Level Estimated
12:06PM 26.6832 -80.0956 50° Northeast  Level Estimated
12:07PM 26.6832 -80.0956 50° Northeast  Level Estimated